createdAt,value
2023-07-03T00:00:19.627Z,14.70
2023-07-03T00:02:52.768Z,14.70
2023-07-03T00:05:21.833Z,14.60
2023-07-03T00:07:49.261Z,14.70
2023-07-03T00:10:17.905Z,14.70
2023-07-03T00:12:45.821Z,14.70
2023-07-03T00:15:13.062Z,14.70
2023-07-03T00:17:40.866Z,14.70
2023-07-03T00:20:15.466Z,14.70
2023-07-03T00:22:44.464Z,14.70
2023-07-03T00:25:11.979Z,14.70
2023-07-03T00:27:40.254Z,14.70
2023-07-03T00:30:08.585Z,14.70
2023-07-03T00:32:35.591Z,14.70
2023-07-03T00:35:03.192Z,14.70
2023-07-03T00:37:32.058Z,14.70
2023-07-03T00:39:59.235Z,14.80
2023-07-03T00:42:28.986Z,14.80
2023-07-03T00:44:56.222Z,14.70
2023-07-03T00:47:25.438Z,14.60
2023-07-03T00:49:53.507Z,14.50
2023-07-03T00:52:21.951Z,14.50
2023-07-03T00:54:50.096Z,14.50
2023-07-03T00:57:18.015Z,14.50
2023-07-03T00:59:45.518Z,14.40
2023-07-03T01:02:45.261Z,14.30
2023-07-03T01:05:25.906Z,14.10
2023-07-03T01:07:54.259Z,14.00
2023-07-03T01:10:24.322Z,14.00
2023-07-03T01:13:05.411Z,14.00
2023-07-03T01:15:37.920Z,14.00
2023-07-03T01:18:08.203Z,14.00
2023-07-03T01:20:43.423Z,14.00
2023-07-03T01:23:34.895Z,14.00
2023-07-03T01:26:03.658Z,13.90
2023-07-03T01:28:33.153Z,14.00
2023-07-03T01:31:01.295Z,13.90
2023-07-03T01:33:34.222Z,13.90
2023-07-03T01:36:02.679Z,13.90
2023-07-03T01:38:31.000Z,13.90
2023-07-03T01:41:00.756Z,13.90
2023-07-03T01:43:28.699Z,14.00
2023-07-03T01:45:56.075Z,14.00
2023-07-03T01:48:23.505Z,14.10
2023-07-03T01:50:51.109Z,14.20
2023-07-03T01:53:30.234Z,14.30
2023-07-03T01:56:14.728Z,14.30
2023-07-03T01:58:52.382Z,14.30
2023-07-03T02:01:43.080Z,14.30
2023-07-03T02:04:44.600Z,14.30
2023-07-03T02:07:13.846Z,14.30
2023-07-03T02:09:43.430Z,14.30
2023-07-03T02:12:12.610Z,14.20
2023-07-03T02:14:40.250Z,14.20
2023-07-03T02:17:07.838Z,14.10
2023-07-03T02:19:35.315Z,14.10
2023-07-03T02:22:02.904Z,14.10
2023-07-03T02:24:30.224Z,14.10
2023-07-03T02:26:57.463Z,14.10
2023-07-03T02:29:24.610Z,14.00
2023-07-03T02:31:51.781Z,14.10
2023-07-03T02:34:19.173Z,14.10
2023-07-03T02:36:47.436Z,14.10
2023-07-03T02:39:14.497Z,14.20
2023-07-03T02:41:41.896Z,14.20
2023-07-03T02:44:08.899Z,14.30
2023-07-03T02:46:37.393Z,14.30
2023-07-03T02:49:05.138Z,14.30
2023-07-03T02:51:32.161Z,14.30
2023-07-03T02:53:59.163Z,14.30
2023-07-03T02:56:26.369Z,14.20
2023-07-03T02:58:53.639Z,14.20
2023-07-03T03:01:20.892Z,14.20
2023-07-03T03:03:48.117Z,14.10
2023-07-03T03:06:15.325Z,14.10
2023-07-03T03:08:42.319Z,14.10
2023-07-03T03:11:10.579Z,14.10
2023-07-03T03:13:37.524Z,14.00
2023-07-03T03:16:05.395Z,13.90
2023-07-03T03:18:32.647Z,13.80
2023-07-03T03:21:00.024Z,13.90
2023-07-03T03:23:27.318Z,13.80
2023-07-03T03:25:54.443Z,13.80
2023-07-03T03:28:21.691Z,13.80
2023-07-03T03:30:51.783Z,13.80
2023-07-03T03:33:19.181Z,13.80
2023-07-03T03:35:48.392Z,13.80
2023-07-03T03:38:15.648Z,13.80
2023-07-03T03:40:54.484Z,13.90
2023-07-03T03:43:22.042Z,13.90
2023-07-03T03:46:03.423Z,13.90
2023-07-03T03:48:32.451Z,13.90
2023-07-03T03:51:03.994Z,14.00
2023-07-03T03:53:32.647Z,13.90
2023-07-03T03:55:59.721Z,13.90
2023-07-03T03:58:26.736Z,13.90
2023-07-03T04:00:53.909Z,13.90
2023-07-03T04:03:21.091Z,13.90
2023-07-03T04:05:49.654Z,13.90
2023-07-03T04:08:17.482Z,13.90
2023-07-03T04:10:44.759Z,13.80
2023-07-03T04:13:13.204Z,13.80
2023-07-03T04:16:00.094Z,13.90
2023-07-03T04:18:28.534Z,14.00
2023-07-03T04:20:56.186Z,14.00
2023-07-03T04:23:26.832Z,13.90
2023-07-03T04:25:54.945Z,14.00
2023-07-03T04:28:24.180Z,14.10
2023-07-03T04:30:51.976Z,14.20
2023-07-03T04:33:19.071Z,14.30
2023-07-03T04:35:48.769Z,14.30
2023-07-03T04:38:18.914Z,14.40
2023-07-03T04:40:47.218Z,14.50
2023-07-03T04:43:17.297Z,14.50
2023-07-03T04:45:51.635Z,14.50
2023-07-03T04:48:20.165Z,14.60
2023-07-03T04:50:50.324Z,14.60
2023-07-03T04:53:22.094Z,14.60
2023-07-03T04:55:50.339Z,14.60
2023-07-03T04:58:17.844Z,14.60
2023-07-03T05:00:44.839Z,14.60
2023-07-03T05:03:11.966Z,14.70
2023-07-03T05:05:39.116Z,14.50
2023-07-03T05:08:06.867Z,14.60
2023-07-03T05:10:38.221Z,14.60
2023-07-03T05:13:05.323Z,14.60
2023-07-03T05:15:32.728Z,14.60
2023-07-03T05:18:00.362Z,14.70
2023-07-03T05:20:27.518Z,14.90
2023-07-03T05:22:56.593Z,14.80
2023-07-03T05:25:23.809Z,14.80
2023-07-03T05:27:51.230Z,14.70
2023-07-03T05:30:18.433Z,14.80
2023-07-03T05:32:45.605Z,14.90
2023-07-03T05:35:12.791Z,14.90
2023-07-03T05:37:40.236Z,15.00
2023-07-03T05:40:08.509Z,15.20
2023-07-03T05:42:37.222Z,15.20
2023-07-03T05:45:05.858Z,15.20
2023-07-03T05:47:33.258Z,15.20
2023-07-03T05:50:00.178Z,15.30
2023-07-03T05:52:27.345Z,15.20
2023-07-03T05:54:54.636Z,15.20
2023-07-03T05:57:21.931Z,15.20
2023-07-03T05:59:49.904Z,15.30
2023-07-03T06:02:18.141Z,15.30
2023-07-03T06:04:45.141Z,15.40
2023-07-03T06:07:12.397Z,15.40
2023-07-03T06:09:39.325Z,15.30
2023-07-03T06:12:07.190Z,15.30
2023-07-03T06:14:35.432Z,15.30
2023-07-03T06:17:02.960Z,15.40
2023-07-03T06:19:31.274Z,15.50
2023-07-03T06:21:59.788Z,15.70
2023-07-03T06:24:26.782Z,16.10
2023-07-03T06:26:53.927Z,16.20
2023-07-03T06:29:21.438Z,16.10
2023-07-03T06:31:50.451Z,16.30
2023-07-03T06:34:17.772Z,16.20
2023-07-03T06:36:45.051Z,16.30
2023-07-03T06:39:13.555Z,16.10
2023-07-03T06:41:41.944Z,16.10
2023-07-03T06:44:16.703Z,16.20
2023-07-03T06:46:45.043Z,16.10
2023-07-03T06:49:12.217Z,16.10
2023-07-03T06:51:39.519Z,16.40
2023-07-03T06:54:07.135Z,16.50
2023-07-03T06:56:34.249Z,16.60
2023-07-03T06:59:01.202Z,16.50
2023-07-03T07:01:31.266Z,16.50
2023-07-03T07:03:58.749Z,16.50
2023-07-03T07:06:31.090Z,16.40
2023-07-03T07:09:00.283Z,16.40
2023-07-03T07:11:33.476Z,16.50
2023-07-03T07:14:03.135Z,16.60
2023-07-03T07:16:35.903Z,16.80
2023-07-03T07:19:07.356Z,16.80
2023-07-03T07:21:37.491Z,16.80
2023-07-03T07:24:21.448Z,16.70
2023-07-03T07:26:51.720Z,16.90
2023-07-03T07:29:18.827Z,16.90
2023-07-03T07:31:45.834Z,16.80
2023-07-03T07:34:13.284Z,16.70
2023-07-03T07:36:41.689Z,16.70
2023-07-03T07:39:09.627Z,16.60
2023-07-03T07:41:37.383Z,16.50
2023-07-03T07:44:06.666Z,16.60
2023-07-03T07:46:36.641Z,16.60
2023-07-03T07:49:04.639Z,16.50
2023-07-03T07:51:32.208Z,16.40
2023-07-03T07:53:59.771Z,16.30
2023-07-03T07:56:29.781Z,16.30
2023-07-03T07:58:58.705Z,16.30
2023-07-03T08:01:25.872Z,16.30
2023-07-03T08:03:53.226Z,16.30
2023-07-03T08:06:20.357Z,16.40
2023-07-03T08:08:47.855Z,16.40
2023-07-03T08:11:15.443Z,16.40
2023-07-03T08:13:43.340Z,16.40
2023-07-03T08:16:12.319Z,16.50
2023-07-03T08:18:39.416Z,16.60
2023-07-03T08:21:06.519Z,16.80
2023-07-03T08:23:33.693Z,16.80
2023-07-03T08:26:02.430Z,16.50
2023-07-03T08:28:30.784Z,16.70
2023-07-03T08:30:59.655Z,16.70
2023-07-03T08:33:26.902Z,16.80
2023-07-03T08:38:25.329Z,16.90
2023-07-03T08:41:01.413Z,17.20
2023-07-03T08:43:40.678Z,17.20
2023-07-03T08:46:15.634Z,17.00
2023-07-03T08:48:45.028Z,17.00
2023-07-03T08:51:16.686Z,16.90
2023-07-03T08:53:50.201Z,16.90
2023-07-03T08:56:26.918Z,17.10
2023-07-03T08:58:56.689Z,17.30
2023-07-03T09:01:46.855Z,17.50
2023-07-03T09:04:48.116Z,17.80
2023-07-03T09:07:33.221Z,18.00
2023-07-03T09:10:46.410Z,19.20
2023-07-03T09:13:34.835Z,19.40
2023-07-03T09:16:21.288Z,18.80
2023-07-03T09:18:59.595Z,18.50
2023-07-03T09:21:29.563Z,18.50
2023-07-03T09:24:30.207Z,18.50
2023-07-03T09:27:22.483Z,18.40
2023-07-03T09:29:51.177Z,18.50
2023-07-03T09:32:28.986Z,18.50
2023-07-03T09:35:09.544Z,18.00
2023-07-03T09:37:39.263Z,17.80
2023-07-03T09:40:11.339Z,17.90
2023-07-03T09:42:38.562Z,18.10
2023-07-03T09:45:15.585Z,18.60
2023-07-03T09:47:51.297Z,19.30
2023-07-03T09:50:28.808Z,19.40
2023-07-03T09:53:08.205Z,20.50
2023-07-03T09:55:36.273Z,21.20
2023-07-03T09:58:16.926Z,20.30
2023-07-03T10:00:50.094Z,20.20
2023-07-03T10:03:33.165Z,19.80
2023-07-03T10:11:50.921Z,18.80
2023-07-03T10:14:26.560Z,18.30
2023-07-03T10:16:54.458Z,18.40
2023-07-03T10:19:22.355Z,18.60
2023-07-03T10:21:50.117Z,18.70
2023-07-03T10:24:18.492Z,18.60
2023-07-03T10:26:54.254Z,18.40
2023-07-03T10:29:31.585Z,18.50
2023-07-03T10:32:13.212Z,18.70
2023-07-03T10:35:31.823Z,18.70
2023-07-03T10:38:26.425Z,18.80
2023-07-03T10:41:30.033Z,18.80
2023-07-03T10:44:05.351Z,18.70
2023-07-03T10:46:52.868Z,18.80
2023-07-03T10:49:33.979Z,18.70
2023-07-03T10:52:26.331Z,18.50
2023-07-03T10:55:26.872Z,18.50
2023-07-03T10:58:15.786Z,18.60
2023-07-03T11:01:27.177Z,18.80
2023-07-03T11:04:22.853Z,19.10
2023-07-03T11:07:15.795Z,19.20
2023-07-03T11:10:09.931Z,18.90
2023-07-03T11:12:45.933Z,18.60
2023-07-03T11:15:48.112Z,18.60
2023-07-03T11:24:17.019Z,18.90
2023-07-03T11:29:26.431Z,19.30
2023-07-03T11:31:53.966Z,19.20
2023-07-03T11:37:03.155Z,18.90
2023-07-03T11:44:47.688Z,19.00
2023-07-03T11:47:24.872Z,19.00
2023-07-03T11:50:01.359Z,19.10
2023-07-03T11:52:32.070Z,19.50
2023-07-03T11:55:22.406Z,20.00
2023-07-03T11:58:14.486Z,20.20
2023-07-03T12:00:45.085Z,20.00
2023-07-03T12:03:12.354Z,20.20
2023-07-03T12:05:48.833Z,20.20
2023-07-03T12:08:19.372Z,20.00
2023-07-03T12:11:04.577Z,20.00
2023-07-03T12:13:43.953Z,19.60
2023-07-03T12:16:27.758Z,19.30
2023-07-03T12:19:05.810Z,19.20
2023-07-03T12:21:45.720Z,19.50
2023-07-03T12:24:22.825Z,19.40
2023-07-03T12:26:57.794Z,19.30
2023-07-03T12:29:25.276Z,19.50
2023-07-03T12:32:06.584Z,19.40
2023-07-03T12:34:40.328Z,19.50
2023-07-03T12:37:15.163Z,19.40
2023-07-03T12:39:44.862Z,19.60
2023-07-03T12:42:26.101Z,19.90
2023-07-03T12:44:54.322Z,20.00
2023-07-03T12:47:23.458Z,20.10
2023-07-03T12:49:56.891Z,20.30
2023-07-03T12:52:29.476Z,20.50
2023-07-03T12:55:09.182Z,20.40
2023-07-03T12:57:39.115Z,20.50
2023-07-03T13:00:09.131Z,20.60
2023-07-03T13:02:37.637Z,20.30
2023-07-03T13:05:09.231Z,20.00
2023-07-03T13:07:36.723Z,20.00
2023-07-03T13:10:15.497Z,20.90
2023-07-03T13:12:43.202Z,22.30
2023-07-03T13:15:16.157Z,22.70
2023-07-03T13:17:45.320Z,22.20
2023-07-03T13:20:29.341Z,22.00
2023-07-03T13:23:01.554Z,22.10
2023-07-03T13:25:36.575Z,22.60
2023-07-03T13:28:33.896Z,21.80
2023-07-03T13:31:22.414Z,21.20
2023-07-03T13:34:17.989Z,21.20
2023-07-03T13:36:47.772Z,21.20
2023-07-03T13:39:17.850Z,21.70
2023-07-03T13:41:47.291Z,22.10
2023-07-03T13:44:19.742Z,21.20
2023-07-03T13:46:49.514Z,21.20
2023-07-03T13:49:18.109Z,22.00
2023-07-03T13:51:48.261Z,21.60
2023-07-03T13:54:16.920Z,21.70
2023-07-03T13:56:44.971Z,21.60
2023-07-03T13:59:12.977Z,21.70
2023-07-03T14:01:42.430Z,21.30
2023-07-03T14:04:10.849Z,21.50
2023-07-03T14:06:38.736Z,21.70
2023-07-03T14:09:06.801Z,21.80
2023-07-03T14:11:34.104Z,22.70
2023-07-03T14:14:01.854Z,23.30
2023-07-03T14:16:32.374Z,23.60
2023-07-03T14:18:59.483Z,23.20
2023-07-03T14:21:26.927Z,23.00
2023-07-03T14:23:54.222Z,22.60
2023-07-03T14:26:21.554Z,23.20
2023-07-03T14:28:50.003Z,23.40
2023-07-03T14:31:18.555Z,23.70
2023-07-03T14:33:45.968Z,23.30
2023-07-03T14:36:13.131Z,22.70
2023-07-03T14:38:40.935Z,22.50
2023-07-03T14:41:09.652Z,22.10
2023-07-03T14:43:36.914Z,21.80
2023-07-03T14:46:05.992Z,22.10
2023-07-03T14:48:32.966Z,21.90
2023-07-03T14:51:00.315Z,21.70
2023-07-03T14:53:27.685Z,21.80
2023-07-03T14:56:03.372Z,21.50
2023-07-03T14:58:31.126Z,21.30
2023-07-03T15:01:02.546Z,21.10
2023-07-03T15:03:31.422Z,20.90
2023-07-03T15:05:59.508Z,20.70
2023-07-03T15:08:27.240Z,20.70
2023-07-03T15:10:54.597Z,20.50
2023-07-03T15:13:21.747Z,20.80
2023-07-03T15:15:50.925Z,20.80
2023-07-03T15:18:21.498Z,20.80
2023-07-03T15:20:48.563Z,20.50
2023-07-03T15:23:16.466Z,20.30
2023-07-03T15:25:43.981Z,20.10
2023-07-03T15:28:11.182Z,20.20
2023-07-03T15:30:41.562Z,20.40
2023-07-03T15:33:09.229Z,20.80
2023-07-03T15:35:36.854Z,20.60
2023-07-03T15:38:04.064Z,20.40
2023-07-03T15:40:31.412Z,20.80
2023-07-03T15:42:58.788Z,21.40
2023-07-03T15:47:53.679Z,22.40
2023-07-03T15:50:20.799Z,22.70
2023-07-03T15:52:47.678Z,23.00
2023-07-03T15:55:15.149Z,23.10
2023-07-03T15:57:42.170Z,23.50
2023-07-03T16:00:11.735Z,23.30
2023-07-03T16:02:38.779Z,24.20
2023-07-03T16:05:06.425Z,24.90
2023-07-03T16:07:33.846Z,24.80
2023-07-03T16:10:01.000Z,24.30
2023-07-03T16:12:27.907Z,23.60
2023-07-03T16:14:55.100Z,23.20
2023-07-03T16:17:22.519Z,23.80
2023-07-03T16:20:11.256Z,23.80
2023-07-03T16:22:38.981Z,23.50
2023-07-03T16:25:07.218Z,23.50
2023-07-03T16:27:34.276Z,23.90
2023-07-03T16:30:01.682Z,24.20
2023-07-03T16:32:30.908Z,24.90
2023-07-03T16:34:58.490Z,25.00
2023-07-03T16:37:25.500Z,24.60
2023-07-03T16:39:52.576Z,23.90
2023-07-03T16:42:19.742Z,23.00
2023-07-03T16:44:47.144Z,22.50
2023-07-03T16:49:42.194Z,21.90
2023-07-03T16:52:09.263Z,21.70
2023-07-03T16:54:36.347Z,22.50
2023-07-03T16:57:03.800Z,23.10
2023-07-03T17:01:58.661Z,24.80
2023-07-03T17:04:25.675Z,25.40
2023-07-03T17:06:52.936Z,24.40
2023-07-03T17:09:21.491Z,24.10
2023-07-03T17:11:48.768Z,23.30
2023-07-03T17:14:16.269Z,23.40
2023-07-03T17:16:44.197Z,22.70
2023-07-03T17:19:11.152Z,22.50
2023-07-03T17:21:39.670Z,22.40
2023-07-03T17:24:07.524Z,22.40
2023-07-03T17:29:05.088Z,21.50
2023-07-03T17:31:32.517Z,21.40
2023-07-03T17:34:00.129Z,20.70
2023-07-03T17:36:28.210Z,20.10
2023-07-03T17:38:55.172Z,19.80
2023-07-03T17:41:24.642Z,19.80
2023-07-03T17:43:53.873Z,19.90
2023-07-03T17:46:20.998Z,20.30
2023-07-03T17:48:48.701Z,20.50
2023-07-03T17:51:15.698Z,20.80
2023-07-03T17:53:45.608Z,21.00
2023-07-03T17:56:13.011Z,20.90
2023-07-03T17:58:40.590Z,20.80
2023-07-03T18:01:08.815Z,20.60
2023-07-03T18:03:36.528Z,20.80
2023-07-03T18:06:03.816Z,21.10
2023-07-03T18:08:30.920Z,20.60
2023-07-03T18:10:58.906Z,20.50
2023-07-03T18:13:28.459Z,20.60
2023-07-03T18:15:58.763Z,20.60
2023-07-03T18:18:26.153Z,20.50
2023-07-03T18:20:53.067Z,20.40
2023-07-03T18:23:20.064Z,20.10
2023-07-03T18:25:48.679Z,19.90
2023-07-03T18:28:16.121Z,19.60
2023-07-03T18:33:10.704Z,19.10
2023-07-03T18:35:38.165Z,18.80
2023-07-03T18:38:05.732Z,18.70
2023-07-03T18:40:33.295Z,18.60
2023-07-03T18:43:00.931Z,18.40
2023-07-03T18:45:28.814Z,18.30
2023-07-03T18:47:55.859Z,18.20
2023-07-03T18:50:23.278Z,18.20
2023-07-03T18:52:50.448Z,18.00
2023-07-03T18:55:19.380Z,18.00
2023-07-03T18:57:47.424Z,18.00
2023-07-03T19:00:18.489Z,17.90
2023-07-03T19:02:46.353Z,17.90
2023-07-03T19:05:14.191Z,17.90
2023-07-03T19:07:41.304Z,17.80
2023-07-03T19:10:17.533Z,17.80
2023-07-03T19:12:46.809Z,17.70
2023-07-03T19:15:14.930Z,17.70
2023-07-03T19:17:42.016Z,17.70
2023-07-03T19:20:11.421Z,17.70
2023-07-03T19:22:38.528Z,17.60
2023-07-03T19:25:07.549Z,17.50
2023-07-03T19:27:37.898Z,17.50
2023-07-03T19:30:06.757Z,17.50
2023-07-03T19:32:33.753Z,17.50
2023-07-03T19:35:00.810Z,17.50
2023-07-03T19:37:27.761Z,17.50
2023-07-03T19:39:54.812Z,17.50
2023-07-03T19:42:21.956Z,17.50
2023-07-03T19:44:49.421Z,17.40
2023-07-03T19:47:16.394Z,17.40
2023-07-03T19:49:44.733Z,17.30
2023-07-03T19:52:12.137Z,17.30
2023-07-03T19:54:40.138Z,17.30
2023-07-03T19:57:07.169Z,17.20
2023-07-03T19:59:34.308Z,17.20
2023-07-03T20:02:02.215Z,17.20
2023-07-03T20:04:30.245Z,17.20
2023-07-03T20:06:58.099Z,17.20
2023-07-03T20:09:25.305Z,17.10
2023-07-03T20:11:52.725Z,17.10
2023-07-03T20:14:21.152Z,17.10
2023-07-03T20:16:51.016Z,17.10
2023-07-03T20:19:18.006Z,17.10
2023-07-03T20:21:45.316Z,17.00
2023-07-03T20:24:12.969Z,17.10
2023-07-03T20:26:40.084Z,17.10
2023-07-03T20:29:07.077Z,17.00
2023-07-03T20:31:34.517Z,17.00
2023-07-03T20:34:02.011Z,16.90
2023-07-03T20:36:30.061Z,16.90
2023-07-03T20:38:58.115Z,16.90
2023-07-03T20:41:25.227Z,16.90
2023-07-03T20:43:52.465Z,16.90
2023-07-03T20:46:22.761Z,16.90
2023-07-03T20:48:56.780Z,16.90
2023-07-03T20:51:27.370Z,16.80
2023-07-03T20:53:54.301Z,16.90
2023-07-03T20:56:24.134Z,16.80
2023-07-03T20:58:55.262Z,16.70
2023-07-03T21:01:33.595Z,16.80
2023-07-03T21:04:05.008Z,16.80
2023-07-03T21:06:35.715Z,16.70
2023-07-03T21:09:05.172Z,16.70
2023-07-03T21:11:35.059Z,16.70
2023-07-03T21:14:06.027Z,16.70
2023-07-03T21:16:36.019Z,16.70
2023-07-03T21:19:04.449Z,16.70
2023-07-03T21:21:33.092Z,16.70
2023-07-03T21:24:08.689Z,16.70
2023-07-03T21:26:36.746Z,16.60
2023-07-03T21:29:05.188Z,16.60
2023-07-03T21:31:35.579Z,16.60
2023-07-03T21:34:04.571Z,16.50
2023-07-03T21:36:33.399Z,16.50
2023-07-03T21:39:04.950Z,16.50
2023-07-03T21:41:35.962Z,16.50
2023-07-03T21:44:13.923Z,16.50
2023-07-03T21:46:42.266Z,16.50
2023-07-03T21:49:14.158Z,16.50
2023-07-03T21:51:41.806Z,16.50
2023-07-03T21:54:08.956Z,16.40
2023-07-03T21:56:38.477Z,16.50
2023-07-03T21:59:09.158Z,16.40
2023-07-03T22:01:39.302Z,16.40
2023-07-03T22:04:08.629Z,16.40
2023-07-03T22:06:36.641Z,16.40
2023-07-03T22:09:05.378Z,16.30
2023-07-03T22:11:33.969Z,16.30
2023-07-03T22:14:03.393Z,16.30
2023-07-03T22:16:33.535Z,16.30
2023-07-03T22:19:01.130Z,16.20
2023-07-03T22:21:30.524Z,16.20
2023-07-03T22:23:58.378Z,16.30
2023-07-03T22:26:25.619Z,16.20
2023-07-03T22:28:53.215Z,16.20
2023-07-03T22:31:20.187Z,16.20
2023-07-03T22:33:47.399Z,16.10
2023-07-03T22:36:15.403Z,16.10
2023-07-03T22:38:49.759Z,16.10
2023-07-03T22:41:17.791Z,16.10
2023-07-03T22:43:46.342Z,16.00
2023-07-03T22:46:13.513Z,16.00
2023-07-03T22:48:44.105Z,16.00
2023-07-03T22:51:11.704Z,16.00
2023-07-03T22:53:41.408Z,15.90
2023-07-03T22:56:08.718Z,15.90
2023-07-03T22:58:35.759Z,15.90
2023-07-03T23:01:13.465Z,15.90
2023-07-03T23:03:42.193Z,15.90
2023-07-03T23:06:09.759Z,15.90
2023-07-03T23:08:37.725Z,15.90
2023-07-03T23:11:05.377Z,15.90
2023-07-03T23:13:33.008Z,15.90
2023-07-03T23:16:06.721Z,15.90
2023-07-03T23:18:37.086Z,15.80
2023-07-03T23:21:11.421Z,15.80
2023-07-03T23:23:38.940Z,15.80
2023-07-03T23:26:12.540Z,15.80
2023-07-03T23:28:43.369Z,15.80
2023-07-03T23:31:14.022Z,15.80
2023-07-03T23:33:43.719Z,15.80
2023-07-03T23:36:14.447Z,15.70
2023-07-03T23:38:45.495Z,15.70
2023-07-03T23:41:12.845Z,15.70
2023-07-03T23:43:41.189Z,15.70
2023-07-03T23:46:10.829Z,15.60
2023-07-03T23:48:39.822Z,15.60
2023-07-03T23:51:11.063Z,15.60
2023-07-03T23:53:44.353Z,15.50
2023-07-03T23:56:16.037Z,15.50
2023-07-03T23:58:46.059Z,15.40
